sensor_id;sensor_type;location;lat;lon;timestamp;P1;durP1;ratioP1;P2;durP2;ratioP2
16705;SDS011;8469;60.136;15.180;2022-10-16T00:01:32;7.28;;;4.50;;
16705;SDS011;8469;60.136;15.180;2022-10-16T00:04:00;10.93;;;5.17;;
16705;SDS011;8469;60.136;15.180;2022-10-16T00:06:27;10.58;;;4.97;;
16705;SDS011;8469;60.136;15.180;2022-10-16T00:08:55;11.00;;;5.08;;
16705;SDS011;8469;60.136;15.180;2022-10-16T00:11:24;9.55;;;5.30;;
16705;SDS011;8469;60.136;15.180;2022-10-16T00:13:54;9.05;;;5.15;;
16705;SDS011;8469;60.136;15.180;2022-10-16T00:16:21;18.60;;;6.20;;
16705;SDS011;8469;60.136;15.180;2022-10-16T00:18:48;14.93;;;6.33;;
16705;SDS011;8469;60.136;15.180;2022-10-16T00:21:18;13.88;;;5.87;;
16705;SDS011;8469;60.136;15.180;2022-10-16T00:23:44;13.98;;;5.62;;
16705;SDS011;8469;60.136;15.180;2022-10-16T00:26:13;15.20;;;6.08;;
16705;SDS011;8469;60.136;15.180;2022-10-16T00:28:40;12.63;;;5.62;;
16705;SDS011;8469;60.136;15.180;2022-10-16T00:31:10;14.07;;;5.50;;
16705;SDS011;8469;60.136;15.180;2022-10-16T00:33:37;12.28;;;5.17;;
16705;SDS011;8469;60.136;15.180;2022-10-16T00:36:05;12.82;;;5.72;;
16705;SDS011;8469;60.136;15.180;2022-10-16T00:38:32;14.05;;;6.00;;
16705;SDS011;8469;60.136;15.180;2022-10-16T00:41:00;15.72;;;6.50;;
16705;SDS011;8469;60.136;15.180;2022-10-16T00:43:37;9.13;;;4.78;;
16705;SDS011;8469;60.136;15.180;2022-10-16T00:46:10;5.67;;;3.37;;
16705;SDS011;8469;60.136;15.180;2022-10-16T00:48:34;4.45;;;2.95;;
16705;SDS011;8469;60.136;15.180;2022-10-16T00:51:02;4.65;;;2.45;;
16705;SDS011;8469;60.136;15.180;2022-10-16T00:53:32;4.20;;;2.02;;
16705;SDS011;8469;60.136;15.180;2022-10-16T00:55:59;1.50;;;1.40;;
16705;SDS011;8469;60.136;15.180;2022-10-16T00:58:27;2.83;;;1.40;;
16705;SDS011;8469;60.136;15.180;2022-10-16T01:00:54;2.90;;;1.57;;
16705;SDS011;8469;60.136;15.180;2022-10-16T01:03:27;1.52;;;1.30;;
16705;SDS011;8469;60.136;15.180;2022-10-16T01:05:53;1.35;;;1.22;;
16705;SDS011;8469;60.136;15.180;2022-10-16T01:08:25;1.25;;;1.10;;
16705;SDS011;8469;60.136;15.180;2022-10-16T01:10:57;1.10;;;0.95;;
16705;SDS011;8469;60.136;15.180;2022-10-16T01:13:27;0.90;;;0.90;;
16705;SDS011;8469;60.136;15.180;2022-10-16T01:15:55;2.62;;;0.98;;
16705;SDS011;8469;60.136;15.180;2022-10-16T01:19:01;1.10;;;0.90;;
16705;SDS011;8469;60.136;15.180;2022-10-16T01:21:10;0.82;;;0.82;;
16705;SDS011;8469;60.136;15.180;2022-10-16T01:28:36;1.92;;;0.80;;
16705;SDS011;8469;60.136;15.180;2022-10-16T01:31:03;0.70;;;0.70;;
16705;SDS011;8469;60.136;15.180;2022-10-16T01:33:35;1.93;;;0.70;;
16705;SDS011;8469;60.136;15.180;2022-10-16T01:36:03;0.85;;;0.85;;
16705;SDS011;8469;60.136;15.180;2022-10-16T01:38:35;0.80;;;0.75;;
16705;SDS011;8469;60.136;15.180;2022-10-16T01:41:14;1.23;;;0.70;;
16705;SDS011;8469;60.136;15.180;2022-10-16T01:43:39;1.80;;;0.70;;
16705;SDS011;8469;60.136;15.180;2022-10-16T01:46:06;0.70;;;0.70;;
16705;SDS011;8469;60.136;15.180;2022-10-16T01:48:34;4.03;;;1.00;;
16705;SDS011;8469;60.136;15.180;2022-10-16T01:51:12;0.70;;;0.70;;
16705;SDS011;8469;60.136;15.180;2022-10-16T01:53:31;1.10;;;0.70;;
16705;SDS011;8469;60.136;15.180;2022-10-16T01:56:08;1.00;;;0.90;;
16705;SDS011;8469;60.136;15.180;2022-10-16T01:58:30;0.80;;;0.80;;
16705;SDS011;8469;60.136;15.180;2022-10-16T02:01:01;1.15;;;0.82;;
16705;SDS011;8469;60.136;15.180;2022-10-16T02:03:32;1.45;;;0.80;;
16705;SDS011;8469;60.136;15.180;2022-10-16T02:06:00;0.57;;;0.57;;
16705;SDS011;8469;60.136;15.180;2022-10-16T02:08:28;0.70;;;0.70;;
16705;SDS011;8469;60.136;15.180;2022-10-16T02:10:57;0.70;;;0.70;;
16705;SDS011;8469;60.136;15.180;2022-10-16T02:13:30;2.50;;;0.70;;
16705;SDS011;8469;60.136;15.180;2022-10-16T02:15:56;2.30;;;0.63;;
16705;SDS011;8469;60.136;15.180;2022-10-16T02:18:23;2.83;;;0.90;;
16705;SDS011;8469;60.136;15.180;2022-10-16T02:20:55;0.70;;;0.65;;
16705;SDS011;8469;60.136;15.180;2022-10-16T02:23:27;0.60;;;0.60;;
16705;SDS011;8469;60.136;15.180;2022-10-16T02:25:53;0.70;;;0.70;;
16705;SDS011;8469;60.136;15.180;2022-10-16T02:28:30;0.90;;;0.80;;
16705;SDS011;8469;60.136;15.180;2022-10-16T02:30:57;0.88;;;0.80;;
16705;SDS011;8469;60.136;15.180;2022-10-16T02:33:24;0.98;;;0.70;;
16705;SDS011;8469;60.136;15.180;2022-10-16T02:35:52;2.30;;;0.70;;
16705;SDS011;8469;60.136;15.180;2022-10-16T02:38:20;1.45;;;0.85;;
16705;SDS011;8469;60.136;15.180;2022-10-16T02:40:48;1.20;;;0.70;;
16705;SDS011;8469;60.136;15.180;2022-10-16T02:43:15;2.83;;;0.70;;
16705;SDS011;8469;60.136;15.180;2022-10-16T02:45:42;0.50;;;0.50;;
16705;SDS011;8469;60.136;15.180;2022-10-16T02:48:10;0.68;;;0.65;;
16705;SDS011;8469;60.136;15.180;2022-10-16T02:50:37;2.22;;;0.80;;
16705;SDS011;8469;60.136;15.180;2022-10-16T02:53:04;0.85;;;0.65;;
16705;SDS011;8469;60.136;15.180;2022-10-16T02:55:32;3.25;;;1.00;;
16705;SDS011;8469;60.136;15.180;2022-10-16T02:58:02;1.10;;;0.70;;
16705;SDS011;8469;60.136;15.180;2022-10-16T03:00:29;1.40;;;1.10;;
16705;SDS011;8469;60.136;15.180;2022-10-16T03:02:57;1.50;;;1.10;;
16705;SDS011;8469;60.136;15.180;2022-10-16T03:05:24;2.08;;;1.15;;
16705;SDS011;8469;60.136;15.180;2022-10-16T03:07:51;1.67;;;1.05;;
16705;SDS011;8469;60.136;15.180;2022-10-16T03:10:19;2.55;;;0.90;;
16705;SDS011;8469;60.136;15.180;2022-10-16T03:12:46;0.95;;;0.70;;
16705;SDS011;8469;60.136;15.180;2022-10-16T03:15:13;2.05;;;1.05;;
16705;SDS011;8469;60.136;15.180;2022-10-16T03:17:40;1.73;;;1.07;;
16705;SDS011;8469;60.136;15.180;2022-10-16T03:20:08;1.92;;;0.70;;
16705;SDS011;8469;60.136;15.180;2022-10-16T03:22:35;2.87;;;1.02;;
16705;SDS011;8469;60.136;15.180;2022-10-16T03:25:05;4.08;;;1.05;;
16705;SDS011;8469;60.136;15.180;2022-10-16T03:27:33;2.85;;;0.88;;
16705;SDS011;8469;60.136;15.180;2022-10-16T03:30:00;3.83;;;0.95;;
16705;SDS011;8469;60.136;15.180;2022-10-16T03:32:28;2.25;;;1.00;;
16705;SDS011;8469;60.136;15.180;2022-10-16T03:34:55;3.03;;;1.00;;
16705;SDS011;8469;60.136;15.180;2022-10-16T03:37:23;4.10;;;0.98;;
16705;SDS011;8469;60.136;15.180;2022-10-16T03:39:50;5.28;;;1.00;;
16705;SDS011;8469;60.136;15.180;2022-10-16T03:42:18;6.05;;;1.12;;
16705;SDS011;8469;60.136;15.180;2022-10-16T03:44:50;2.58;;;0.90;;
16705;SDS011;8469;60.136;15.180;2022-10-16T03:47:14;5.53;;;1.00;;
16705;SDS011;8469;60.136;15.180;2022-10-16T03:49:41;5.47;;;1.05;;
16705;SDS011;8469;60.136;15.180;2022-10-16T03:52:08;9.70;;;1.30;;
16705;SDS011;8469;60.136;15.180;2022-10-16T03:54:36;2.30;;;0.80;;
16705;SDS011;8469;60.136;15.180;2022-10-16T03:57:03;4.50;;;0.97;;
16705;SDS011;8469;60.136;15.180;2022-10-16T03:59:33;7.42;;;1.32;;
16705;SDS011;8469;60.136;15.180;2022-10-16T04:02:00;4.28;;;1.05;;
16705;SDS011;8469;60.136;15.180;2022-10-16T04:04:28;4.40;;;1.10;;
16705;SDS011;8469;60.136;15.180;2022-10-16T04:06:55;5.08;;;1.27;;
16705;SDS011;8469;60.136;15.180;2022-10-16T04:09:22;3.65;;;1.25;;
16705;SDS011;8469;60.136;15.180;2022-10-16T04:11:49;2.75;;;1.20;;
16705;SDS011;8469;60.136;15.180;2022-10-16T04:14:17;4.65;;;1.40;;
16705;SDS011;8469;60.136;15.180;2022-10-16T04:16:44;10.00;;;1.50;;
16705;SDS011;8469;60.136;15.180;2022-10-16T04:19:11;4.70;;;1.90;;
16705;SDS011;8469;60.136;15.180;2022-10-16T04:21:39;7.67;;;1.82;;
16705;SDS011;8469;60.136;15.180;2022-10-16T04:24:06;4.00;;;1.30;;
16705;SDS011;8469;60.136;15.180;2022-10-16T04:26:34;6.58;;;1.20;;
16705;SDS011;8469;60.136;15.180;2022-10-16T04:29:03;6.15;;;1.30;;
16705;SDS011;8469;60.136;15.180;2022-10-16T04:31:30;5.87;;;1.47;;
16705;SDS011;8469;60.136;15.180;2022-10-16T04:33:57;6.20;;;1.30;;
16705;SDS011;8469;60.136;15.180;2022-10-16T04:36:24;3.90;;;1.12;;
16705;SDS011;8469;60.136;15.180;2022-10-16T04:38:52;3.65;;;1.30;;
16705;SDS011;8469;60.136;15.180;2022-10-16T04:41:19;5.90;;;1.22;;
16705;SDS011;8469;60.136;15.180;2022-10-16T04:43:46;6.87;;;1.12;;
16705;SDS011;8469;60.136;15.180;2022-10-16T04:46:14;6.03;;;1.20;;
16705;SDS011;8469;60.136;15.180;2022-10-16T04:48:41;8.43;;;1.42;;
16705;SDS011;8469;60.136;15.180;2022-10-16T04:51:08;8.85;;;1.20;;
16705;SDS011;8469;60.136;15.180;2022-10-16T04:53:36;9.40;;;1.35;;
16705;SDS011;8469;60.136;15.180;2022-10-16T04:56:03;8.30;;;1.47;;
16705;SDS011;8469;60.136;15.180;2022-10-16T04:58:30;6.83;;;1.50;;
16705;SDS011;8469;60.136;15.180;2022-10-16T05:00:58;3.52;;;1.30;;
16705;SDS011;8469;60.136;15.180;2022-10-16T05:03:25;6.30;;;1.10;;
16705;SDS011;8469;60.136;15.180;2022-10-16T05:05:52;5.60;;;1.27;;
16705;SDS011;8469;60.136;15.180;2022-10-16T05:08:20;7.40;;;1.82;;
16705;SDS011;8469;60.136;15.180;2022-10-16T05:10:47;2.98;;;1.40;;
16705;SDS011;8469;60.136;15.180;2022-10-16T05:13:14;3.95;;;1.30;;
16705;SDS011;8469;60.136;15.180;2022-10-16T05:15:41;6.97;;;1.60;;
16705;SDS011;8469;60.136;15.180;2022-10-16T05:18:09;6.33;;;1.42;;
16705;SDS011;8469;60.136;15.180;2022-10-16T05:20:36;7.22;;;1.75;;
16705;SDS011;8469;60.136;15.180;2022-10-16T05:23:03;5.20;;;2.00;;
16705;SDS011;8469;60.136;15.180;2022-10-16T05:25:31;6.00;;;1.80;;
16705;SDS011;8469;60.136;15.180;2022-10-16T05:27:58;6.20;;;1.42;;
16705;SDS011;8469;60.136;15.180;2022-10-16T05:30:25;6.20;;;1.55;;
16705;SDS011;8469;60.136;15.180;2022-10-16T05:32:53;5.87;;;1.70;;
16705;SDS011;8469;60.136;15.180;2022-10-16T05:35:20;6.00;;;1.85;;
16705;SDS011;8469;60.136;15.180;2022-10-16T05:37:47;6.90;;;1.60;;
16705;SDS011;8469;60.136;15.180;2022-10-16T05:40:15;5.25;;;1.82;;
16705;SDS011;8469;60.136;15.180;2022-10-16T05:42:47;6.22;;;1.40;;
16705;SDS011;8469;60.136;15.180;2022-10-16T05:45:11;6.17;;;1.60;;
16705;SDS011;8469;60.136;15.180;2022-10-16T05:47:39;5.45;;;1.50;;
16705;SDS011;8469;60.136;15.180;2022-10-16T05:50:06;5.05;;;1.47;;
16705;SDS011;8469;60.136;15.180;2022-10-16T05:52:34;6.17;;;2.40;;
16705;SDS011;8469;60.136;15.180;2022-10-16T05:55:01;12.15;;;1.80;;
16705;SDS011;8469;60.136;15.180;2022-10-16T05:57:28;7.30;;;1.70;;
16705;SDS011;8469;60.136;15.180;2022-10-16T05:59:56;4.30;;;1.60;;
16705;SDS011;8469;60.136;15.180;2022-10-16T06:02:23;6.75;;;1.77;;
16705;SDS011;8469;60.136;15.180;2022-10-16T06:04:53;9.75;;;1.87;;
16705;SDS011;8469;60.136;15.180;2022-10-16T06:07:21;6.37;;;1.65;;
16705;SDS011;8469;60.136;15.180;2022-10-16T06:09:49;4.60;;;1.80;;
16705;SDS011;8469;60.136;15.180;2022-10-16T06:12:17;6.45;;;1.75;;
16705;SDS011;8469;60.136;15.180;2022-10-16T06:14:45;8.40;;;1.90;;
16705;SDS011;8469;60.136;15.180;2022-10-16T06:17:13;6.23;;;1.93;;
16705;SDS011;8469;60.136;15.180;2022-10-16T06:19:40;7.75;;;1.98;;
16705;SDS011;8469;60.136;15.180;2022-10-16T06:22:08;8.05;;;1.90;;
16705;SDS011;8469;60.136;15.180;2022-10-16T06:24:35;12.35;;;2.22;;
16705;SDS011;8469;60.136;15.180;2022-10-16T06:27:03;6.80;;;1.50;;
16705;SDS011;8469;60.136;15.180;2022-10-16T06:29:30;8.43;;;2.35;;
16705;SDS011;8469;60.136;15.180;2022-10-16T06:31:57;7.83;;;2.12;;
16705;SDS011;8469;60.136;15.180;2022-10-16T06:34:25;8.80;;;1.98;;
16705;SDS011;8469;60.136;15.180;2022-10-16T06:36:52;5.77;;;1.97;;
16705;SDS011;8469;60.136;15.180;2022-10-16T06:39:19;7.00;;;1.60;;
16705;SDS011;8469;60.136;15.180;2022-10-16T06:41:47;9.85;;;1.70;;
16705;SDS011;8469;60.136;15.180;2022-10-16T06:44:15;9.80;;;2.00;;
16705;SDS011;8469;60.136;15.180;2022-10-16T06:46:42;6.15;;;1.77;;
16705;SDS011;8469;60.136;15.180;2022-10-16T06:49:09;9.03;;;1.80;;
16705;SDS011;8469;60.136;15.180;2022-10-16T06:51:37;5.58;;;1.90;;
16705;SDS011;8469;60.136;15.180;2022-10-16T06:54:09;6.78;;;1.90;;
16705;SDS011;8469;60.136;15.180;2022-10-16T06:56:37;12.00;;;2.15;;
16705;SDS011;8469;60.136;15.180;2022-10-16T06:59:04;5.22;;;1.90;;
16705;SDS011;8469;60.136;15.180;2022-10-16T07:01:31;8.10;;;1.90;;
16705;SDS011;8469;60.136;15.180;2022-10-16T07:03:59;11.73;;;1.80;;
16705;SDS011;8469;60.136;15.180;2022-10-16T07:06:29;7.75;;;2.05;;
16705;SDS011;8469;60.136;15.180;2022-10-16T07:08:56;6.83;;;2.00;;
16705;SDS011;8469;60.136;15.180;2022-10-16T07:11:23;7.42;;;1.75;;
16705;SDS011;8469;60.136;15.180;2022-10-16T07:13:50;5.85;;;1.65;;
16705;SDS011;8469;60.136;15.180;2022-10-16T07:16:19;8.48;;;1.80;;
16705;SDS011;8469;60.136;15.180;2022-10-16T07:18:47;11.60;;;1.98;;
16705;SDS011;8469;60.136;15.180;2022-10-16T07:21:16;11.97;;;3.15;;
16705;SDS011;8469;60.136;15.180;2022-10-16T07:23:43;8.60;;;2.17;;
16705;SDS011;8469;60.136;15.180;2022-10-16T07:26:11;11.97;;;2.10;;
16705;SDS011;8469;60.136;15.180;2022-10-16T07:28:38;11.30;;;3.03;;
16705;SDS011;8469;60.136;15.180;2022-10-16T07:31:09;8.88;;;2.47;;
16705;SDS011;8469;60.136;15.180;2022-10-16T07:33:41;10.38;;;2.35;;
16705;SDS011;8469;60.136;15.180;2022-10-16T07:36:05;8.75;;;1.72;;
16705;SDS011;8469;60.136;15.180;2022-10-16T07:38:33;10.68;;;2.22;;
16705;SDS011;8469;60.136;15.180;2022-10-16T07:41:06;9.90;;;2.47;;
16705;SDS011;8469;60.136;15.180;2022-10-16T07:43:30;11.48;;;2.22;;
16705;SDS011;8469;60.136;15.180;2022-10-16T07:45:57;11.15;;;2.20;;
16705;SDS011;8469;60.136;15.180;2022-10-16T07:48:26;9.80;;;2.30;;
16705;SDS011;8469;60.136;15.180;2022-10-16T07:50:56;12.28;;;3.17;;
16705;SDS011;8469;60.136;15.180;2022-10-16T07:53:22;18.00;;;2.50;;
16705;SDS011;8469;60.136;15.180;2022-10-16T07:55:49;11.73;;;2.70;;
16705;SDS011;8469;60.136;15.180;2022-10-16T07:58:17;8.88;;;2.10;;
16705;SDS011;8469;60.136;15.180;2022-10-16T08:00:44;12.05;;;3.20;;
16705;SDS011;8469;60.136;15.180;2022-10-16T08:03:11;12.93;;;2.62;;
16705;SDS011;8469;60.136;15.180;2022-10-16T08:05:39;10.37;;;2.40;;
16705;SDS011;8469;60.136;15.180;2022-10-16T08:08:06;10.30;;;2.22;;
16705;SDS011;8469;60.136;15.180;2022-10-16T08:10:33;11.83;;;2.20;;
16705;SDS011;8469;60.136;15.180;2022-10-16T08:13:01;12.15;;;2.35;;
16705;SDS011;8469;60.136;15.180;2022-10-16T08:15:28;10.32;;;2.02;;
16705;SDS011;8469;60.136;15.180;2022-10-16T08:17:57;10.20;;;2.22;;
16705;SDS011;8469;60.136;15.180;2022-10-16T08:20:25;7.70;;;2.00;;
16705;SDS011;8469;60.136;15.180;2022-10-16T08:22:53;7.95;;;2.20;;
16705;SDS011;8469;60.136;15.180;2022-10-16T08:25:22;9.93;;;2.98;;
16705;SDS011;8469;60.136;15.180;2022-10-16T08:27:50;14.50;;;2.22;;
16705;SDS011;8469;60.136;15.180;2022-10-16T08:30:18;15.32;;;2.30;;
16705;SDS011;8469;60.136;15.180;2022-10-16T08:32:45;11.95;;;2.12;;
16705;SDS011;8469;60.136;15.180;2022-10-16T08:35:13;12.07;;;1.85;;
16705;SDS011;8469;60.136;15.180;2022-10-16T08:37:41;11.12;;;2.40;;
16705;SDS011;8469;60.136;15.180;2022-10-16T08:40:27;9.45;;;2.37;;
16705;SDS011;8469;60.136;15.180;2022-10-16T08:50:36;11.93;;;2.50;;
16705;SDS011;8469;60.136;15.180;2022-10-16T08:53:09;8.25;;;2.27;;
16705;SDS011;8469;60.136;15.180;2022-10-16T08:55:43;16.17;;;3.72;;
16705;SDS011;8469;60.136;15.180;2022-10-16T08:58:12;18.67;;;3.08;;
16705;SDS011;8469;60.136;15.180;2022-10-16T09:00:40;14.83;;;2.22;;
16705;SDS011;8469;60.136;15.180;2022-10-16T09:11:23;14.30;;;2.42;;
16705;SDS011;8469;60.136;15.180;2022-10-16T09:13:50;8.90;;;2.27;;
16705;SDS011;8469;60.136;15.180;2022-10-16T09:16:19;12.47;;;2.55;;
16705;SDS011;8469;60.136;15.180;2022-10-16T09:18:53;8.75;;;2.12;;
16705;SDS011;8469;60.136;15.180;2022-10-16T09:21:27;13.72;;;1.98;;
16705;SDS011;8469;60.136;15.180;2022-10-16T09:23:59;9.20;;;1.92;;
16705;SDS011;8469;60.136;15.180;2022-10-16T09:26:24;13.72;;;2.37;;
16705;SDS011;8469;60.136;15.180;2022-10-16T09:28:52;10.30;;;2.13;;
16705;SDS011;8469;60.136;15.180;2022-10-16T09:31:20;10.48;;;2.00;;
16705;SDS011;8469;60.136;15.180;2022-10-16T09:33:55;10.85;;;2.52;;
16705;SDS011;8469;60.136;15.180;2022-10-16T09:36:22;9.30;;;2.00;;
16705;SDS011;8469;60.136;15.180;2022-10-16T09:39:00;11.43;;;2.27;;
16705;SDS011;8469;60.136;15.180;2022-10-16T09:41:21;10.60;;;1.90;;
16705;SDS011;8469;60.136;15.180;2022-10-16T09:43:52;16.23;;;2.45;;
16705;SDS011;8469;60.136;15.180;2022-10-16T09:46:34;11.53;;;2.20;;
16705;SDS011;8469;60.136;15.180;2022-10-16T09:49:03;9.90;;;2.08;;
16705;SDS011;8469;60.136;15.180;2022-10-16T09:51:35;11.00;;;2.10;;
16705;SDS011;8469;60.136;15.180;2022-10-16T09:54:02;17.35;;;3.22;;
16705;SDS011;8469;60.136;15.180;2022-10-16T09:56:34;11.38;;;2.45;;
16705;SDS011;8469;60.136;15.180;2022-10-16T09:59:08;14.35;;;2.27;;
16705;SDS011;8469;60.136;15.180;2022-10-16T10:01:42;9.25;;;1.95;;
16705;SDS011;8469;60.136;15.180;2022-10-16T10:04:09;11.08;;;2.00;;
16705;SDS011;8469;60.136;15.180;2022-10-16T10:06:40;15.65;;;3.35;;
16705;SDS011;8469;60.136;15.180;2022-10-16T10:09:13;14.38;;;3.25;;
16705;SDS011;8469;60.136;15.180;2022-10-16T10:11:41;17.52;;;4.55;;
16705;SDS011;8469;60.136;15.180;2022-10-16T10:14:26;8.85;;;2.60;;
16705;SDS011;8469;60.136;15.180;2022-10-16T10:19:45;13.72;;;1.85;;
16705;SDS011;8469;60.136;15.180;2022-10-16T10:22:25;10.43;;;1.90;;
16705;SDS011;8469;60.136;15.180;2022-10-16T10:24:57;16.25;;;4.60;;
16705;SDS011;8469;60.136;15.180;2022-10-16T10:27:37;18.62;;;5.25;;
16705;SDS011;8469;60.136;15.180;2022-10-16T10:32:40;10.98;;;2.83;;
16705;SDS011;8469;60.136;15.180;2022-10-16T10:35:14;14.65;;;4.50;;
16705;SDS011;8469;60.136;15.180;2022-10-16T10:40:14;12.75;;;3.70;;
16705;SDS011;8469;60.136;15.180;2022-10-16T10:50:25;15.00;;;2.37;;
16705;SDS011;8469;60.136;15.180;2022-10-16T10:53:35;15.83;;;2.10;;
16705;SDS011;8469;60.136;15.180;2022-10-16T11:00:20;14.00;;;2.77;;
16705;SDS011;8469;60.136;15.180;2022-10-16T11:11:40;14.53;;;2.20;;
16705;SDS011;8469;60.136;15.180;2022-10-16T11:15:44;15.25;;;2.60;;
16705;SDS011;8469;60.136;15.180;2022-10-16T11:18:16;9.75;;;2.20;;
16705;SDS011;8469;60.136;15.180;2022-10-16T11:20:49;10.80;;;2.30;;
16705;SDS011;8469;60.136;15.180;2022-10-16T11:23:17;8.50;;;2.60;;
16705;SDS011;8469;60.136;15.180;2022-10-16T11:25:45;14.68;;;2.80;;
16705;SDS011;8469;60.136;15.180;2022-10-16T11:30:53;13.05;;;3.35;;
16705;SDS011;8469;60.136;15.180;2022-10-16T11:33:25;8.83;;;3.23;;
16705;SDS011;8469;60.136;15.180;2022-10-16T11:35:53;13.05;;;2.30;;
16705;SDS011;8469;60.136;15.180;2022-10-16T11:38:29;8.88;;;2.10;;
16705;SDS011;8469;60.136;15.180;2022-10-16T11:40:56;8.25;;;1.70;;
16705;SDS011;8469;60.136;15.180;2022-10-16T11:43:43;8.30;;;1.80;;
16705;SDS011;8469;60.136;15.180;2022-10-16T11:45:56;10.15;;;1.95;;
16705;SDS011;8469;60.136;15.180;2022-10-16T11:48:30;10.80;;;2.30;;
16705;SDS011;8469;60.136;15.180;2022-10-16T11:50:56;9.03;;;2.17;;
16705;SDS011;8469;60.136;15.180;2022-10-16T11:53:35;10.30;;;2.05;;
16705;SDS011;8469;60.136;15.180;2022-10-16T11:56:00;11.15;;;2.55;;
16705;SDS011;8469;60.136;15.180;2022-10-16T12:01:18;9.25;;;2.80;;
16705;SDS011;8469;60.136;15.180;2022-10-16T12:03:46;7.47;;;2.33;;
16705;SDS011;8469;60.136;15.180;2022-10-16T12:08:51;6.47;;;1.70;;
16705;SDS011;8469;60.136;15.180;2022-10-16T12:11:30;10.00;;;2.02;;
16705;SDS011;8469;60.136;15.180;2022-10-16T12:13:48;7.65;;;2.00;;
16705;SDS011;8469;60.136;15.180;2022-10-16T12:18:44;10.23;;;1.85;;
16705;SDS011;8469;60.136;15.180;2022-10-16T12:21:13;9.70;;;2.20;;
16705;SDS011;8469;60.136;15.180;2022-10-16T12:23:51;9.73;;;2.15;;
16705;SDS011;8469;60.136;15.180;2022-10-16T12:26:26;13.00;;;3.67;;
16705;SDS011;8469;60.136;15.180;2022-10-16T12:28:54;9.25;;;2.30;;
16705;SDS011;8469;60.136;15.180;2022-10-16T12:31:22;21.07;;;4.28;;
16705;SDS011;8469;60.136;15.180;2022-10-16T12:38:56;10.58;;;2.40;;
16705;SDS011;8469;60.136;15.180;2022-10-16T12:41:34;16.77;;;3.22;;
16705;SDS011;8469;60.136;15.180;2022-10-16T12:43:53;51.42;;;13.60;;
16705;SDS011;8469;60.136;15.180;2022-10-16T12:48:52;12.53;;;2.17;;
16705;SDS011;8469;60.136;15.180;2022-10-16T12:51:34;17.37;;;4.90;;
16705;SDS011;8469;60.136;15.180;2022-10-16T12:54:01;17.10;;;2.93;;
16705;SDS011;8469;60.136;15.180;2022-10-16T13:04:38;13.62;;;3.17;;
16705;SDS011;8469;60.136;15.180;2022-10-16T13:07:52;13.18;;;3.45;;
16705;SDS011;8469;60.136;15.180;2022-10-16T13:09:40;21.00;;;7.08;;
16705;SDS011;8469;60.136;15.180;2022-10-16T13:12:28;14.73;;;4.60;;
16705;SDS011;8469;60.136;15.180;2022-10-16T13:14:58;15.20;;;3.95;;
16705;SDS011;8469;60.136;15.180;2022-10-16T13:17:25;12.40;;;3.20;;
16705;SDS011;8469;60.136;15.180;2022-10-16T13:23:01;12.93;;;2.60;;
16705;SDS011;8469;60.136;15.180;2022-10-16T13:25:10;12.87;;;2.33;;
16705;SDS011;8469;60.136;15.180;2022-10-16T13:27:41;17.75;;;3.40;;
16705;SDS011;8469;60.136;15.180;2022-10-16T13:30:13;5.87;;;2.00;;
16705;SDS011;8469;60.136;15.180;2022-10-16T13:32:43;13.53;;;2.40;;
16705;SDS011;8469;60.136;15.180;2022-10-16T13:35:19;12.18;;;2.25;;
16705;SDS011;8469;60.136;15.180;2022-10-16T13:37:44;4.20;;;1.30;;
16705;SDS011;8469;60.136;15.180;2022-10-16T13:40:22;3.47;;;0.80;;
16705;SDS011;8469;60.136;15.180;2022-10-16T13:42:50;3.10;;;1.05;;
16705;SDS011;8469;60.136;15.180;2022-10-16T13:45:21;1.70;;;0.80;;
16705;SDS011;8469;60.136;15.180;2022-10-16T13:48:09;3.10;;;1.30;;
16705;SDS011;8469;60.136;15.180;2022-10-16T13:50:30;2.35;;;1.22;;
16705;SDS011;8469;60.136;15.180;2022-10-16T13:53:05;2.58;;;1.00;;
16705;SDS011;8469;60.136;15.180;2022-10-16T13:55:33;3.35;;;0.80;;
16705;SDS011;8469;60.136;15.180;2022-10-16T13:58:13;5.73;;;1.20;;
16705;SDS011;8469;60.136;15.180;2022-10-16T14:00:51;2.47;;;1.20;;
16705;SDS011;8469;60.136;15.180;2022-10-16T14:03:13;4.35;;;1.52;;
16705;SDS011;8469;60.136;15.180;2022-10-16T14:05:46;5.75;;;1.80;;
16705;SDS011;8469;60.136;15.180;2022-10-16T14:08:13;2.47;;;0.80;;
16705;SDS011;8469;60.136;15.180;2022-10-16T14:10:40;0.95;;;0.72;;
16705;SDS011;8469;60.136;15.180;2022-10-16T14:13:12;2.75;;;0.93;;
16705;SDS011;8469;60.136;15.180;2022-10-16T14:15:37;2.12;;;0.93;;
16705;SDS011;8469;60.136;15.180;2022-10-16T14:18:05;1.30;;;0.90;;
16705;SDS011;8469;60.136;15.180;2022-10-16T14:20:33;2.95;;;0.80;;
16705;SDS011;8469;60.136;15.180;2022-10-16T14:23:18;2.20;;;0.72;;
16705;SDS011;8469;60.136;15.180;2022-10-16T14:25:30;1.65;;;0.70;;
16705;SDS011;8469;60.136;15.180;2022-10-16T14:27:59;1.07;;;0.75;;
16705;SDS011;8469;60.136;15.180;2022-10-16T14:30:27;1.90;;;1.17;;
16705;SDS011;8469;60.136;15.180;2022-10-16T14:33:00;2.40;;;1.00;;
16705;SDS011;8469;60.136;15.180;2022-10-16T14:35:31;1.27;;;0.83;;
16705;SDS011;8469;60.136;15.180;2022-10-16T14:37:59;2.70;;;1.47;;
16705;SDS011;8469;60.136;15.180;2022-10-16T14:40:31;1.75;;;0.82;;
16705;SDS011;8469;60.136;15.180;2022-10-16T14:42:56;3.60;;;0.95;;
16705;SDS011;8469;60.136;15.180;2022-10-16T14:45:24;3.35;;;1.00;;
16705;SDS011;8469;60.136;15.180;2022-10-16T14:47:53;1.85;;;0.93;;
16705;SDS011;8469;60.136;15.180;2022-10-16T14:50:21;2.00;;;1.00;;
16705;SDS011;8469;60.136;15.180;2022-10-16T14:52:48;1.77;;;0.93;;
16705;SDS011;8469;60.136;15.180;2022-10-16T14:55:15;4.70;;;1.50;;
16705;SDS011;8469;60.136;15.180;2022-10-16T14:57:43;5.45;;;1.40;;
16705;SDS011;8469;60.136;15.180;2022-10-16T15:00:22;3.70;;;1.20;;
16705;SDS011;8469;60.136;15.180;2022-10-16T15:02:46;2.15;;;1.15;;
16705;SDS011;8469;60.136;15.180;2022-10-16T15:05:17;3.65;;;1.37;;
16705;SDS011;8469;60.136;15.180;2022-10-16T15:07:45;5.40;;;1.70;;
16705;SDS011;8469;60.136;15.180;2022-10-16T15:10:13;5.03;;;1.57;;
16705;SDS011;8469;60.136;15.180;2022-10-16T15:12:41;4.12;;;1.20;;
16705;SDS011;8469;60.136;15.180;2022-10-16T15:17:40;3.15;;;1.17;;
16705;SDS011;8469;60.136;15.180;2022-10-16T15:20:07;2.73;;;1.30;;
16705;SDS011;8469;60.136;15.180;2022-10-16T15:22:34;3.83;;;1.52;;
16705;SDS011;8469;60.136;15.180;2022-10-16T15:25:01;3.92;;;1.20;;
16705;SDS011;8469;60.136;15.180;2022-10-16T15:27:29;3.90;;;1.55;;
16705;SDS011;8469;60.136;15.180;2022-10-16T15:29:56;5.10;;;1.70;;
16705;SDS011;8469;60.136;15.180;2022-10-16T15:32:23;5.17;;;1.10;;
16705;SDS011;8469;60.136;15.180;2022-10-16T15:34:51;2.05;;;1.00;;
16705;SDS011;8469;60.136;15.180;2022-10-16T15:37:18;3.37;;;0.90;;
16705;SDS011;8469;60.136;15.180;2022-10-16T15:39:45;5.35;;;1.10;;
16705;SDS011;8469;60.136;15.180;2022-10-16T15:42:12;1.37;;;0.90;;
16705;SDS011;8469;60.136;15.180;2022-10-16T15:44:40;1.52;;;0.80;;
16705;SDS011;8469;60.136;15.180;2022-10-16T15:47:07;1.52;;;1.10;;
16705;SDS011;8469;60.136;15.180;2022-10-16T15:49:35;2.77;;;1.00;;
16705;SDS011;8469;60.136;15.180;2022-10-16T15:52:02;1.50;;;0.78;;
16705;SDS011;8469;60.136;15.180;2022-10-16T15:54:30;1.65;;;0.93;;
16705;SDS011;8469;60.136;15.180;2022-10-16T15:56:57;2.60;;;0.90;;
16705;SDS011;8469;60.136;15.180;2022-10-16T15:59:24;3.55;;;0.90;;
16705;SDS011;8469;60.136;15.180;2022-10-16T16:01:52;3.30;;;1.00;;
16705;SDS011;8469;60.136;15.180;2022-10-16T16:04:19;1.25;;;0.70;;
16705;SDS011;8469;60.136;15.180;2022-10-16T16:06:46;4.60;;;0.70;;
16705;SDS011;8469;60.136;15.180;2022-10-16T16:09:14;2.60;;;0.90;;
16705;SDS011;8469;60.136;15.180;2022-10-16T16:11:41;1.07;;;0.90;;
16705;SDS011;8469;60.136;15.180;2022-10-16T16:14:13;1.40;;;1.10;;
16705;SDS011;8469;60.136;15.180;2022-10-16T16:16:41;2.70;;;1.15;;